Terminal Aerodrome Forecast
Issued by NWS

Home | Current Version | Previous Version | Text Only | Print | Product List | Glossary On
Versions: 1 2 3 4 5 6 7 8 9 10 11 12 13 14 15 16 17 18 19 20 21 22
000
FTAK31 PAFA 241125
TAFAGA
TAF
PAGA 241125Z 2412/2512 21015KT 6SM -SN BR SCT015 OVC050
     FM241500 22015G25KT P6SM -SHSN BKN015 OVC025
     FM250100 21015G25KT 1 1/2SM -SN BR OVC007=

USA.gov is the U.S. government's official web portal to all federal, state and local government web resources and services.